Time;durP1;ratioP1;P1;durP2;ratioP2;P2;SDS_P1;SDS_P2;PMS_P1;PMS_P2;Temp;Humidity;BMP_temperature;BMP_pressure;BME280_temperature;BME280_humidity;BME280_pressure;Samples;Min_cycle;Max_cycle;Signal;HPM_P1;HPM_P2
2022/09/17 00:01:32;;;;;;;3.25;1.55;;;13.90;68.50;;;;;;5071703;28;20041;-50
2022/09/17 00:04:03;;;;;;;4.07;1.60;;;13.90;68.60;;;;;;5071778;28;20045;-47
2022/09/17 00:06:35;;;;;;;5.00;1.50;;;13.90;68.40;;;;;;5090677;28;20153;-45
2022/09/17 00:09:06;;;;;;;5.93;1.70;;;13.90;68.50;;;;;;5090222;28;20047;-49
2022/09/17 00:11:40;;;;;;;2.45;1.30;;;13.90;68.60;;;;;;5085141;28;20101;-45
2022/09/17 00:14:11;;;;;;;7.32;1.83;;;13.90;68.60;;;;;;5092811;28;20055;-50
2022/09/17 00:16:40;;;;;;;6.10;1.90;;;13.90;68.50;;;;;;5095327;28;20435;-48
2022/09/17 00:19:14;;;;;;;4.95;1.60;;;13.80;68.60;;;;;;5074727;28;20047;-51
2022/09/17 00:21:41;;;;;;;4.80;1.70;;;13.80;68.60;;;;;;5088338;28;20115;-49
2022/09/17 00:24:10;;;;;;;6.72;2.22;;;13.80;68.60;;;;;;5090146;28;20040;-48
2022/09/17 00:26:37;;;;;;;4.53;1.60;;;13.80;68.60;;;;;;5095063;28;20420;-50
2022/09/17 00:29:09;;;;;;;4.35;1.52;;;13.80;68.60;;;;;;5083035;28;20119;-47
2022/09/17 00:31:38;;;;;;;5.00;1.70;;;13.80;68.80;;;;;;5091536;28;20047;-47
2022/09/17 00:34:11;;;;;;;3.92;1.42;;;13.70;69.30;;;;;;5095947;28;20105;-48
2022/09/17 00:36:38;;;;;;;2.30;1.27;;;13.70;68.80;;;;;;5084886;28;20037;-48
2022/09/17 00:39:07;;;;;;;4.55;2.13;;;13.70;68.80;;;;;;5089485;28;20040;-46
2022/09/17 00:41:35;;;;;;;5.30;1.23;;;13.70;69.00;;;;;;5090820;28;20051;-49
2022/09/17 00:44:54;;;;;;;5.95;1.65;;;13.60;68.90;;;;;;5101385;28;20123;-47
2022/09/17 00:47:23;;;;;;;3.05;1.02;;;13.60;69.60;;;;;;5051348;28;20445;-46
2022/09/17 00:50:00;;;;;;;4.03;1.40;;;13.60;69.00;;;;;;5091193;28;20122;-49
2022/09/17 00:52:37;;;;;;;2.15;1.30;;;13.60;69.20;;;;;;5091965;28;20044;-49
2022/09/17 00:55:31;;;;;;;5.40;2.03;;;13.60;69.60;;;;;;5080417;28;20386;-50
2022/09/17 00:58:04;;;;;;;4.85;1.70;;;13.60;69.90;;;;;;5079749;28;20080;-47
2022/09/17 01:00:31;;;;;;;4.70;1.40;;;13.60;69.60;;;;;;5087714;28;20036;-51
2022/09/17 01:03:08;;;;;;;5.07;1.33;;;13.60;69.60;;;;;;5091297;28;20043;-46
2022/09/17 01:05:48;;;;;;;7.13;2.50;;;13.60;69.50;;;;;;5084705;28;20481;-48
2022/09/17 01:08:37;;;;;;;4.95;1.88;;;13.60;69.70;;;;;;5070952;28;20037;-49
2022/09/17 01:11:20;;;;;;;5.57;1.65;;;13.60;69.70;;;;;;5088504;28;20550;-50
2022/09/17 01:14:06;;;;;;;7.10;2.13;;;13.60;69.70;;;;;;5078930;28;20048;-50
2022/09/17 01:16:42;;;;;;;4.43;1.63;;;13.60;69.80;;;;;;5070441;28;20040;-46
2022/09/17 01:19:34;;;;;;;5.05;1.92;;;13.60;69.80;;;;;;5083413;28;20165;-49
2022/09/17 01:22:30;;;;;;;6.38;1.42;;;13.50;69.90;;;;;;5092377;28;20036;-49
2022/09/17 01:25:28;;;;;;;8.23;1.75;;;13.50;69.50;;;;;;5010104;28;20440;-46
2022/09/17 01:28:35;;;;;;;5.70;1.80;;;13.60;70.50;;;;;;5089751;28;20055;-48
2022/09/17 01:31:29;;;;;;;4.93;1.50;;;13.50;70.20;;;;;;5095646;28;20520;-50
2022/09/17 01:34:16;;;;;;;5.18;1.83;;;13.50;70.30;;;;;;5085317;28;20063;-47
2022/09/17 01:37:03;;;;;;;6.72;1.50;;;13.50;70.20;;;;;;5070265;28;20039;-48
2022/09/17 01:39:33;;;;;;;5.35;1.50;;;13.50;70.40;;;;;;5088498;28;20399;-47
2022/09/17 01:42:21;;;;;;;4.93;1.55;;;13.40;69.90;;;;;;5092752;28;20032;-51
2022/09/17 01:45:10;;;;;;;4.32;1.65;;;13.40;70.00;;;;;;5082115;28;20040;-49
2022/09/17 01:47:56;;;;;;;3.53;1.92;;;13.40;70.50;;;;;;5095634;28;20514;-50
2022/09/17 01:50:45;;;;;;;4.93;2.03;;;13.40;70.60;;;;;;5081219;28;20039;-50
2022/09/17 01:53:14;;;;;;;3.50;1.60;;;13.40;70.10;;;;;;5079130;28;20470;-46
2022/09/17 01:55:44;;;;;;;3.25;1.25;;;13.40;70.10;;;;;;5095251;28;20043;-47
2022/09/17 01:58:19;;;;;;;7.78;2.25;;;13.40;70.10;;;;;;5084522;28;20097;-47
2022/09/17 02:00:52;;;;;;;2.60;1.05;;;13.40;70.20;;;;;;5085648;28;20490;-46
2022/09/17 02:03:45;;;;;;;5.55;1.73;;;13.40;70.30;;;;;;5077917;28;20047;-46
2022/09/17 02:06:16;;;;;;;8.75;1.65;;;13.40;70.30;;;;;;5062057;28;20060;-44
2022/09/17 02:08:53;;;;;;;4.20;2.08;;;13.40;70.30;;;;;;5089707;28;20036;-49
2022/09/17 02:11:20;;;;;;;4.22;1.60;;;13.40;70.40;;;;;;5084938;28;20037;-51
2022/09/17 02:13:57;;;;;;;3.80;1.45;;;13.40;70.30;;;;;;5085707;28;20091;-48
2022/09/17 02:16:29;;;;;;;4.38;2.22;;;13.40;70.50;;;;;;5091220;28;20043;-45
2022/09/17 02:19:07;;;;;;;5.88;1.80;;;13.40;70.30;;;;;;5082657;28;20040;-51
2022/09/17 02:21:53;;;;;;;10.23;2.33;;;13.40;70.50;;;;;;5089846;28;20047;-47
2022/09/17 02:24:45;;;;;;;3.67;1.27;;;13.40;70.30;;;;;;5078361;28;20481;-46
2022/09/17 02:27:35;;;;;;;6.88;1.73;;;13.40;70.50;;;;;;5069723;28;20072;-47
2022/09/17 02:30:05;;;;;;;4.57;1.55;;;13.50;71.00;;;;;;5086521;28;20463;-51
2022/09/17 02:32:38;;;;;;;5.63;2.08;;;13.50;70.30;;;;;;5088749;28;20075;-47
2022/09/17 02:35:06;;;;;;;5.93;1.52;;;13.50;70.40;;;;;;5075270;28;20049;-45
2022/09/17 02:37:35;;;;;;;3.95;1.27;;;13.50;70.40;;;;;;5096005;28;20047;-49
2022/09/17 02:40:02;;;;;;;4.20;1.35;;;13.50;70.50;;;;;;5084764;28;20032;-49
2022/09/17 02:42:50;;;;;;;3.55;1.40;;;13.50;70.60;;;;;;5093323;28;20040;-45
2022/09/17 02:45:35;;;;;;;5.35;1.55;;;13.50;70.60;;;;;;5096724;28;20467;-45
2022/09/17 02:48:29;;;;;;;4.43;1.38;;;13.60;70.90;;;;;;5085155;28;20077;-49
2022/09/17 02:51:32;;;;;;;3.83;1.35;;;13.60;70.70;;;;;;5092830;28;20087;-49
2022/09/17 02:54:30;;;;;;;5.40;1.33;;;13.60;70.50;;;;;;5096545;28;20047;-48
2022/09/17 02:57:03;;;;;;;4.60;1.95;;;13.60;70.50;;;;;;5064348;28;20051;-49
2022/09/17 02:59:42;;;;;;;4.38;1.52;;;13.60;69.80;;;;;;5073124;28;20131;-48
2022/09/17 03:02:24;;;;;;;7.18;1.65;;;13.60;70.00;;;;;;5072794;28;20047;-46
2022/09/17 03:04:52;;;;;;;4.20;1.58;;;13.60;70.20;;;;;;5097655;28;20036;-51
2022/09/17 03:07:21;;;;;;;7.85;2.33;;;13.60;69.90;;;;;;5080772;28;20040;-48
2022/09/17 03:09:48;;;;;;;8.32;2.20;;;13.60;70.10;;;;;;5072750;28;20060;-50
2022/09/17 03:12:15;;;;;;;3.35;1.13;;;13.60;70.20;;;;;;5086878;28;20047;-49
2022/09/17 03:14:45;;;;;;;5.60;1.55;;;13.60;70.20;;;;;;5098266;28;20040;-51
2022/09/17 03:17:13;;;;;;;7.57;1.63;;;13.60;70.20;;;;;;5080070;28;20052;-49
2022/09/17 03:19:43;;;;;;;8.88;1.30;;;13.60;70.30;;;;;;5072112;28;20044;-49
2022/09/17 03:22:09;;;;;;;5.18;1.60;;;13.60;70.40;;;;;;5087462;28;20484;-45
2022/09/17 03:24:36;;;;;;;2.40;0.98;;;13.60;70.40;;;;;;5086786;28;20040;-47
2022/09/17 03:27:03;;;;;;;4.35;1.40;;;13.60;70.40;;;;;;5090476;28;20110;-47
2022/09/17 03:29:30;;;;;;;7.07;1.83;;;13.60;70.30;;;;;;5093598;28;20036;-48
2022/09/17 03:31:58;;;;;;;7.70;1.42;;;13.70;70.90;;;;;;5095084;28;20068;-49
2022/09/17 03:34:24;;;;;;;7.80;1.77;;;13.70;70.20;;;;;;5092042;28;20044;-48
2022/09/17 03:36:53;;;;;;;5.18;1.38;;;13.70;70.10;;;;;;5084090;28;20142;-48
2022/09/17 03:39:21;;;;;;;5.35;1.20;;;13.70;70.00;;;;;;5092696;28;20059;-46
2022/09/17 03:41:48;;;;;;;8.52;1.38;;;13.70;70.00;;;;;;5096072;28;20046;-47
2022/09/17 03:44:21;;;;;;;5.25;1.50;;;13.60;69.90;;;;;;5083008;28;20097;-52
2022/09/17 03:46:49;;;;;;;5.50;1.13;;;13.60;69.90;;;;;;5092008;28;20452;-48
2022/09/17 03:49:18;;;;;;;5.90;1.67;;;13.60;70.00;;;;;;5093749;28;20093;-48
2022/09/17 03:51:46;;;;;;;7.90;2.05;;;13.60;70.00;;;;;;5094838;28;20441;-47
2022/09/17 03:54:18;;;;;;;4.18;1.75;;;13.60;70.10;;;;;;5088539;28;20051;-46
2022/09/17 03:56:45;;;;;;;4.38;0.95;;;13.60;70.10;;;;;;5080773;28;20040;-47
2022/09/17 03:59:11;;;;;;;5.20;1.35;;;13.50;70.20;;;;;;5092718;28;20130;-49
2022/09/17 04:01:40;;;;;;;4.97;1.10;;;13.50;70.20;;;;;;5091633;28;20066;-48
2022/09/17 04:04:08;;;;;;;6.03;1.25;;;13.50;70.40;;;;;;5083743;28;20050;-47
2022/09/17 04:06:34;;;;;;;5.40;1.50;;;13.60;70.50;;;;;;5093219;28;20089;-51
2022/09/17 04:09:03;;;;;;;2.97;1.35;;;13.60;70.60;;;;;;5094404;28;20028;-47
2022/09/17 04:11:30;;;;;;;4.13;1.35;;;13.60;70.80;;;;;;5095614;28;20496;-46
2022/09/17 04:13:58;;;;;;;7.05;1.00;;;13.60;70.80;;;;;;5083743;28;20050;-47
2022/09/17 04:16:24;;;;;;;4.20;1.20;;;13.60;70.80;;;;;;5091799;28;20043;-46
2022/09/17 04:18:52;;;;;;;4.47;1.23;;;13.60;70.70;;;;;;5097039;28;20645;-47
2022/09/17 04:21:19;;;;;;;6.53;1.42;;;13.70;70.70;;;;;;5087135;28;20055;-52
2022/09/17 04:23:46;;;;;;;4.85;1.30;;;13.70;70.70;;;;;;5086824;28;20044;-50
2022/09/17 04:26:15;;;;;;;5.15;1.58;;;13.70;70.50;;;;;;5091535;28;20032;-50
2022/09/17 04:28:46;;;;;;;3.40;1.10;;;13.80;70.40;;;;;;5097770;28;20511;-49
2022/09/17 04:31:18;;;;;;;3.83;1.00;;;13.80;70.40;;;;;;5088086;28;20045;-48
2022/09/17 04:33:44;;;;;;;4.80;1.58;;;13.80;70.20;;;;;;5086855;28;20040;-48
2022/09/17 04:36:11;;;;;;;6.22;1.33;;;13.80;69.90;;;;;;5092309;28;20100;-46
2022/09/17 04:38:40;;;;;;;4.78;1.20;;;13.70;69.70;;;;;;5091573;28;20040;-48
2022/09/17 04:41:09;;;;;;;2.28;1.13;;;13.80;69.80;;;;;;5082595;28;20051;-46
2022/09/17 04:43:35;;;;;;;3.47;1.40;;;13.70;69.80;;;;;;5091127;28;20055;-48
2022/09/17 04:46:02;;;;;;;8.65;1.55;;;13.70;69.90;;;;;;5092736;28;20042;-45
2022/09/17 04:48:29;;;;;;;3.35;1.30;;;13.70;70.00;;;;;;5091721;28;20404;-47
2022/09/17 04:50:55;;;;;;;5.47;1.67;;;13.70;70.00;;;;;;5082514;28;20049;-45
2022/09/17 04:53:22;;;;;;;4.43;1.35;;;13.70;70.10;;;;;;5090796;28;20040;-44
2022/09/17 04:55:51;;;;;;;6.05;1.45;;;13.70;70.20;;;;;;5085466;28;20627;-49
2022/09/17 04:58:18;;;;;;;3.28;1.10;;;13.70;70.20;;;;;;5079266;28;20409;-47
2022/09/17 05:00:45;;;;;;;2.65;1.45;;;13.80;70.30;;;;;;5070330;28;20036;-48
2022/09/17 05:03:12;;;;;;;7.47;1.67;;;13.80;70.40;;;;;;5078819;28;20046;-51
2022/09/17 05:05:38;;;;;;;7.03;1.30;;;13.80;70.40;;;;;;5091937;28;20445;-49
2022/09/17 05:08:07;;;;;;;4.63;1.60;;;13.80;70.40;;;;;;5093183;28;20032;-47
2022/09/17 05:10:34;;;;;;;2.47;0.98;;;13.80;70.30;;;;;;5082968;28;20040;-47
2022/09/17 05:13:00;;;;;;;2.63;1.30;;;13.80;70.30;;;;;;5091522;28;20081;-46
2022/09/17 05:15:27;;;;;;;5.35;1.45;;;13.80;70.30;;;;;;5093237;28;20040;-45
2022/09/17 05:17:54;;;;;;;4.28;1.40;;;13.90;70.40;;;;;;5074437;28;20036;-45
2022/09/17 05:20:21;;;;;;;4.72;0.93;;;13.90;70.30;;;;;;5082573;28;20047;-47
2022/09/17 05:22:50;;;;;;;3.97;1.17;;;13.90;70.30;;;;;;5079032;28;20401;-49
2022/09/17 05:25:23;;;;;;;3.50;1.65;;;13.90;70.20;;;;;;5072004;28;20559;-48
2022/09/17 05:27:51;;;;;;;12.88;1.73;;;14.00;70.20;;;;;;5071514;28;20040;-45
2022/09/17 05:30:18;;;;;;;5.18;1.10;;;14.00;70.00;;;;;;5072396;28;20115;-46
2022/09/17 05:32:48;;;;;;;1.75;0.75;;;14.00;69.90;;;;;;5080465;28;20396;-45
2022/09/17 05:35:15;;;;;;;5.50;1.67;;;14.00;69.80;;;;;;5095108;28;20036;-45
2022/09/17 05:37:41;;;;;;;7.50;1.85;;;14.00;69.70;;;;;;5094065;28;20110;-47
2022/09/17 05:40:09;;;;;;;6.22;1.45;;;14.00;69.70;;;;;;5084316;28;20044;-48
2022/09/17 05:42:38;;;;;;;3.63;1.17;;;14.00;69.60;;;;;;5084084;28;20407;-45
2022/09/17 05:45:13;;;;;;;2.75;1.10;;;14.00;69.60;;;;;;5095996;28;20111;-51
2022/09/17 05:47:39;;;;;;;6.43;1.20;;;14.00;69.50;;;;;;5081032;28;20055;-47
2022/09/17 05:50:10;;;;;;;5.20;1.55;;;14.00;69.50;;;;;;5070680;28;20144;-47
2022/09/17 05:52:39;;;;;;;5.22;1.08;;;14.00;69.40;;;;;;5085397;28;20101;-47
2022/09/17 05:55:06;;;;;;;2.90;1.25;;;14.00;69.40;;;;;;5088912;28;20054;-52
2022/09/17 05:57:33;;;;;;;7.30;1.42;;;14.00;69.20;;;;;;5083198;28;20516;-50
2022/09/17 06:00:00;;;;;;;8.02;1.83;;;14.00;69.20;;;;;;5090736;28;20040;-51
2022/09/17 06:02:26;;;;;;;7.15;1.38;;;14.00;69.20;;;;;;5091505;28;20041;-51
2022/09/17 06:04:53;;;;;;;5.85;1.48;;;14.00;69.10;;;;;;5090577;28;20496;-53
2022/09/17 06:07:20;;;;;;;3.08;0.95;;;14.00;69.10;;;;;;5083496;28;20052;-50
2022/09/17 06:09:46;;;;;;;5.18;1.67;;;14.00;69.10;;;;;;5094249;28;20039;-50
2022/09/17 06:12:13;;;;;;;7.00;1.55;;;14.00;69.10;;;;;;5096595;28;20119;-51
2022/09/17 06:14:40;;;;;;;5.18;1.40;;;14.00;69.10;;;;;;5093731;28;20496;-49
2022/09/17 06:17:06;;;;;;;3.58;1.02;;;13.90;69.00;;;;;;5092765;28;20046;-51
2022/09/17 06:19:33;;;;;;;3.70;1.52;;;13.90;69.20;;;;;;5079915;28;20043;-54
2022/09/17 06:22:00;;;;;;;4.03;1.45;;;13.90;69.30;;;;;;5096502;28;20119;-51
2022/09/17 06:24:27;;;;;;;4.03;0.75;;;13.90;69.50;;;;;;5088168;28;20049;-52
2022/09/17 06:26:53;;;;;;;2.53;1.33;;;13.90;69.60;;;;;;5090649;28;20040;-54
2022/09/17 06:29:20;;;;;;;4.28;1.45;;;13.90;69.60;;;;;;5096609;28;20028;-50
2022/09/17 06:31:47;;;;;;;2.40;1.02;;;14.00;69.60;;;;;;5094196;28;20400;-50
2022/09/17 06:34:15;;;;;;;3.90;1.33;;;13.90;69.50;;;;;;5085948;28;20058;-49
2022/09/17 06:36:42;;;;;;;5.05;1.58;;;13.90;69.50;;;;;;5094248;28;20404;-50
2022/09/17 06:39:10;;;;;;;4.85;1.08;;;13.90;69.50;;;;;;5098777;28;20059;-49
2022/09/17 06:41:37;;;;;;;4.95;1.05;;;14.00;69.80;;;;;;5094266;28;20040;-52
2022/09/17 06:44:04;;;;;;;4.50;1.45;;;14.00;69.90;;;;;;5083561;28;20044;-53
2022/09/17 06:46:33;;;;;;;6.95;1.42;;;14.00;69.90;;;;;;5071665;28;20044;-54
2022/09/17 06:49:02;;;;;;;4.50;1.60;;;14.00;69.90;;;;;;5087683;28;20046;-54
2022/09/17 06:51:30;;;;;;;4.40;1.65;;;14.10;70.00;;;;;;5094974;28;20043;-51
2022/09/17 06:53:56;;;;;;;6.97;1.27;;;14.00;69.80;;;;;;5091332;28;20412;-52
2022/09/17 06:56:26;;;;;;;7.72;1.02;;;14.10;69.90;;;;;;5083901;28;20122;-53
2022/09/17 06:58:55;;;;;;;6.32;1.30;;;14.10;69.70;;;;;;5097161;28;20039;-54
2022/09/17 07:01:22;;;;;;;5.65;1.38;;;14.20;69.60;;;;;;5079161;28;20500;-53
2022/09/17 07:03:49;;;;;;;2.75;1.52;;;14.20;69.60;;;;;;5087469;28;20078;-55
2022/09/17 07:06:15;;;;;;;5.43;1.45;;;14.30;69.50;;;;;;5091514;28;20044;-54
2022/09/17 07:08:42;;;;;;;6.28;1.38;;;14.40;69.20;;;;;;5096372;28;20040;-54
2022/09/17 07:11:09;;;;;;;4.15;1.23;;;14.40;69.10;;;;;;5089140;28;20040;-52
2022/09/17 07:13:36;;;;;;;5.75;1.30;;;14.50;69.10;;;;;;5084949;28;20040;-54
2022/09/17 07:16:04;;;;;;;4.90;0.98;;;14.60;69.00;;;;;;5091993;28;20059;-52
2022/09/17 07:18:31;;;;;;;6.55;1.65;;;14.60;68.90;;;;;;5080471;28;20095;-55
2022/09/17 07:21:00;;;;;;;4.18;1.63;;;14.70;68.50;;;;;;5082750;28;20044;-53
2022/09/17 07:23:29;;;;;;;2.55;1.08;;;14.80;68.30;;;;;;5075388;28;20048;-53
2022/09/17 07:25:58;;;;;;;5.65;1.60;;;14.80;68.10;;;;;;5083251;28;20051;-55
2022/09/17 07:28:25;;;;;;;3.75;1.17;;;14.90;68.10;;;;;;5083519;28;20040;-54
2022/09/17 07:30:52;;;;;;;6.13;1.50;;;15.00;68.00;;;;;;5090616;28;20127;-52
2022/09/17 07:33:22;;;;;;;9.35;1.52;;;15.10;67.90;;;;;;5090470;28;20032;-53
2022/09/17 07:36:00;;;;;;;6.72;1.10;;;15.10;67.30;;;;;;5080206;28;20052;-50
2022/09/17 07:38:28;;;;;;;6.43;1.60;;;15.20;66.80;;;;;;5086928;28;20043;-54
2022/09/17 07:41:03;;;;;;;11.18;1.60;;;15.20;66.60;;;;;;5075001;28;20059;-51
2022/09/17 07:43:32;;;;;;;4.30;1.30;;;15.20;66.40;;;;;;5091337;28;20044;-54
2022/09/17 07:46:01;;;;;;;5.40;1.58;;;15.20;66.60;;;;;;5095771;28;20051;-50
2022/09/17 07:48:29;;;;;;;7.97;1.42;;;15.20;66.90;;;;;;5087229;28;20032;-55
2022/09/17 07:50:56;;;;;;;3.67;1.00;;;15.30;67.10;;;;;;5084928;28;20418;-55
2022/09/17 07:53:23;;;;;;;4.82;1.10;;;15.40;66.90;;;;;;5075896;28;20040;-54
2022/09/17 07:55:55;;;;;;;3.67;1.20;;;15.40;66.90;;;;;;5090631;28;20032;-54
2022/09/17 07:58:26;;;;;;;3.22;1.20;;;15.50;66.90;;;;;;5086678;28;20048;-53
2022/09/17 08:01:00;;;;;;;7.30;1.48;;;15.60;66.90;;;;;;5072410;28;20691;-53
2022/09/17 08:03:26;;;;;;;3.38;1.30;;;15.70;65.90;;;;;;5084745;28;20050;-55
2022/09/17 08:05:53;;;;;;;5.97;1.45;;;15.70;65.90;;;;;;5087401;28;20032;-54
2022/09/17 08:08:20;;;;;;;6.28;1.30;;;15.70;65.50;;;;;;5079293;28;20041;-53
2022/09/17 08:10:47;;;;;;;4.38;1.50;;;15.80;65.60;;;;;;5070587;28;20048;-49
2022/09/17 08:13:14;;;;;;;5.10;1.25;;;15.90;65.20;;;;;;5093027;28;20705;-54
2022/09/17 08:15:40;;;;;;;2.78;1.27;;;15.90;65.10;;;;;;5075860;28;20048;-53
2022/09/17 08:18:07;;;;;;;4.88;0.73;;;16.00;65.10;;;;;;5077823;28;20062;-51
2022/09/17 08:20:34;;;;;;;2.20;0.90;;;16.00;65.30;;;;;;5085545;28;20702;-53
2022/09/17 08:23:00;;;;;;;3.50;0.77;;;16.10;64.70;;;;;;5083414;28;20055;-51
2022/09/17 08:25:27;;;;;;;4.97;1.13;;;16.10;64.10;;;;;;5076712;28;20036;-50
2022/09/17 08:27:57;;;;;;;4.78;0.95;;;16.20;64.00;;;;;;5081732;28;20036;-53
2022/09/17 08:30:23;;;;;;;5.38;1.08;;;16.20;63.10;;;;;;5091464;28;20069;-55
2022/09/17 08:32:50;;;;;;;3.58;1.00;;;16.20;63.10;;;;;;5084913;28;20526;-52
2022/09/17 08:35:17;;;;;;;3.13;0.55;;;16.20;63.00;;;;;;5085790;28;20036;-55
2022/09/17 08:37:43;;;;;;;2.08;0.50;;;16.20;62.90;;;;;;5084258;28;20052;-51
2022/09/17 08:40:19;;;;;;;2.15;1.50;;;16.10;62.80;;;;;;5087890;28;20125;-52
2022/09/17 08:43:00;;;;;;;3.28;1.10;;;16.10;62.80;;;;;;5080910;28;20062;-54
2022/09/17 08:45:28;;;;;;;7.95;1.10;;;16.10;62.00;;;;;;5086800;28;20036;-55
2022/09/17 08:48:01;;;;;;;2.75;0.88;;;16.10;62.70;;;;;;5080615;28;20059;-54
2022/09/17 08:50:31;;;;;;;3.13;1.05;;;16.10;62.90;;;;;;5092816;28;20035;-53
2022/09/17 08:53:16;;;;;;;3.85;0.77;;;16.10;63.20;;;;;;5081515;28;20044;-53
2022/09/17 08:55:50;;;;;;;3.08;0.77;;;16.10;62.60;;;;;;5068426;28;20036;-53
2022/09/17 08:58:32;;;;;;;4.75;1.25;;;16.20;62.60;;;;;;5086915;28;20049;-54
2022/09/17 09:01:33;;;;;;;2.90;0.60;;;16.20;62.20;;;;;;5083418;28;20137;-51
2022/09/17 09:04:30;;;;;;;4.03;1.33;;;16.30;61.70;;;;;;5079029;28;20040;-51
2022/09/17 09:07:07;;;;;;;11.73;0.88;;;16.30;61.70;;;;;;5081677;28;20143;-53
2022/09/17 09:09:40;;;;;;;5.00;0.65;;;16.40;61.50;;;;;;5097416;28;20054;-53
2022/09/17 09:12:25;;;;;;;7.70;1.08;;;16.50;62.00;;;;;;5088520;28;20459;-52
2022/09/17 09:14:58;;;;;;;3.53;1.40;;;16.60;60.80;;;;;;5081430;28;20044;-51
2022/09/17 09:17:32;;;;;;;1.95;0.63;;;16.70;61.60;;;;;;5083696;28;20047;-51
2022/09/17 09:19:58;;;;;;;5.63;1.00;;;16.80;61.10;;;;;;5091070;28;20243;-51
2022/09/17 09:22:46;;;;;;;1.70;0.70;;;16.90;61.00;;;;;;5080314;28;20032;-53
2022/09/17 09:25:26;;;;;;;2.17;0.60;;;17.00;60.00;;;;;;5068630;28;20044;-54
2022/09/17 09:28:22;;;;;;;3.80;1.08;;;17.10;60.40;;;;;;5071076;28;20046;-54
2022/09/17 09:31:23;;;;;;;2.13;1.00;;;17.20;59.40;;;;;;5089526;28;20032;-52
2022/09/17 09:33:51;;;;;;;2.92;0.73;;;17.30;60.00;;;;;;5086939;28;20124;-53
2022/09/17 09:36:20;;;;;;;4.82;1.05;;;17.40;59.90;;;;;;5090021;28;20048;-54
2022/09/17 09:38:48;;;;;;;2.28;0.93;;;17.40;59.40;;;;;;5084503;28;20090;-54
2022/09/17 09:41:25;;;;;;;2.60;0.80;;;17.40;59.40;;;;;;5073286;28;20044;-53
2022/09/17 09:44:12;;;;;;;2.10;0.90;;;17.40;58.90;;;;;;5074902;28;20052;-50
2022/09/17 09:47:01;;;;;;;2.78;0.90;;;17.40;59.20;;;;;;5095212;28;20047;-51
2022/09/17 09:49:37;;;;;;;2.55;1.05;;;17.40;59.70;;;;;;5091856;28;20423;-51
2022/09/17 09:52:18;;;;;;;5.30;1.30;;;17.30;60.30;;;;;;5083596;28;20028;-55
2022/09/17 09:55:16;;;;;;;3.80;0.75;;;17.30;59.30;;;;;;5091315;28;20040;-53
2022/09/17 09:57:45;;;;;;;2.65;0.43;;;17.20;59.90;;;;;;5095994;28;20040;-52
2022/09/17 10:00:25;;;;;;;1.75;0.68;;;17.20;59.70;;;;;;5082436;28;20080;-53
2022/09/17 10:03:00;;;;;;;2.15;0.45;;;17.20;59.90;;;;;;5082348;28;20044;-53
2022/09/17 10:05:27;;;;;;;2.33;0.70;;;17.20;60.50;;;;;;5093737;28;20158;-52
2022/09/17 10:07:54;;;;;;;5.78;1.02;;;17.20;60.40;;;;;;5089303;28;20531;-53
2022/09/17 10:10:21;;;;;;;3.65;0.93;;;17.20;59.90;;;;;;5080396;28;20045;-54
2022/09/17 10:12:48;;;;;;;4.43;1.13;;;17.20;59.40;;;;;;5074034;28;20519;-51
2022/09/17 10:15:26;;;;;;;1.73;0.95;;;17.20;59.50;;;;;;5079524;28;20515;-52
2022/09/17 10:18:31;;;;;;;1.05;0.50;;;17.30;59.40;;;;;;5087975;28;20400;-51
2022/09/17 10:20:59;;;;;;;2.50;0.68;;;17.40;59.10;;;;;;4977840;28;20047;-51
2022/09/17 10:23:35;;;;;;;3.45;0.50;;;17.40;59.90;;;;;;4985855;28;20050;-53
2022/09/17 10:26:02;;;;;;;3.22;0.95;;;17.60;58.70;;;;;;5040362;28;20055;-54
2022/09/17 10:28:45;;;;;;;1.20;0.55;;;17.60;59.90;;;;;;5085299;28;20043;-52
2022/09/17 10:31:12;;;;;;;5.72;0.98;;;17.80;58.50;;;;;;5086546;28;20092;-51
2022/09/17 10:33:51;;;;;;;1.75;0.60;;;17.90;58.30;;;;;;5089181;28;20093;-51
2022/09/17 10:36:38;;;;;;;3.03;0.50;;;17.90;57.70;;;;;;5089569;28;20236;-52
2022/09/17 10:39:18;;;;;;;3.42;0.95;;;17.90;59.40;;;;;;5083870;28;20047;-51
2022/09/17 10:41:56;;;;;;;7.05;1.10;;;17.90;61.60;;;;;;5082742;28;20054;-55
2022/09/17 10:44:25;;;;;;;2.20;0.70;;;17.80;62.30;;;;;;5091887;28;20085;-52
2022/09/17 10:46:52;;;;;;;4.70;0.80;;;17.60;62.20;;;;;;5085406;28;20037;-54
2022/09/17 10:49:42;;;;;;;3.20;0.55;;;17.30;62.90;;;;;;5072401;28;20496;-54
2022/09/17 10:52:22;;;;;;;1.00;0.43;;;17.10;65.30;;;;;;5078773;28;20040;-54
2022/09/17 10:55:04;;;;;;;2.05;0.60;;;16.90;65.10;;;;;;5083804;28;20032;-54
2022/09/17 10:57:49;;;;;;;1.63;0.50;;;16.60;66.40;;;;;;5078123;28;20063;-55
2022/09/17 11:00:18;;;;;;;3.85;0.80;;;16.50;68.20;;;;;;5074541;28;20048;-56
2022/09/17 11:03:13;;;;;;;3.42;0.88;;;16.40;68.20;;;;;;5088355;28;20516;-51
2022/09/17 11:05:58;;;;;;;4.47;0.70;;;16.30;69.60;;;;;;5083489;28;20047;-54
2022/09/17 11:08:48;;;;;;;3.70;0.50;;;16.20;68.70;;;;;;5085510;28;20047;-52
2022/09/17 11:11:39;;;;;;;1.60;0.80;;;16.20;70.40;;;;;;5096251;28;20073;-51
2022/09/17 11:14:11;;;;;;;1.00;0.47;;;16.20;70.60;;;;;;5081970;28;20041;-53
2022/09/17 11:17:04;;;;;;;2.78;0.80;;;16.30;69.20;;;;;;5092299;28;20583;-56
2022/09/17 11:20:15;;;;;;;3.45;0.70;;;16.30;70.10;;;;;;5088882;28;20426;-53
2022/09/17 11:23:15;;;;;;;6.57;0.80;;;16.40;69.50;;;;;;5092356;28;20055;-51
2022/09/17 11:25:54;;;;;;;1.40;0.40;;;16.50;69.40;;;;;;5080456;28;20045;-53
2022/09/17 11:28:26;;;;;;;0.88;0.50;;;16.70;67.10;;;;;;5071989;28;20151;-53
2022/09/17 11:31:06;;;;;;;1.42;0.47;;;16.80;66.90;;;;;;5087424;28;20050;-54
2022/09/17 11:34:02;;;;;;;3.90;0.57;;;17.00;66.50;;;;;;5080977;28;20036;-55
2022/09/17 11:36:39;;;;;;;3.25;0.55;;;17.10;65.60;;;;;;5071688;28;20120;-54
2022/09/17 11:39:24;;;;;;;2.08;0.90;;;17.30;64.90;;;;;;5078273;28;20048;-54
2022/09/17 11:41:54;;;;;;;1.25;0.45;;;17.40;63.60;;;;;;5079755;28;20155;-57
2022/09/17 11:44:34;;;;;;;1.38;0.40;;;17.50;63.20;;;;;;5080017;28;20055;-54
2022/09/17 11:47:09;;;;;;;1.08;0.30;;;17.60;61.60;;;;;;5072579;28;20035;-52
2022/09/17 11:49:59;;;;;;;1.63;0.57;;;17.70;61.30;;;;;;5082213;28;20032;-52
2022/09/17 11:52:39;;;;;;;0.98;0.40;;;17.70;61.60;;;;;;5083287;28;20040;-54
2022/09/17 11:55:48;;;;;;;3.65;0.73;;;17.80;61.30;;;;;;5090283;28;20115;-53
2022/09/17 11:58:18;;;;;;;2.05;0.85;;;17.80;61.80;;;;;;5067857;28;20471;-52
2022/09/17 12:00:53;;;;;;;5.20;0.68;;;17.90;61.20;;;;;;5087104;28;20389;-56
2022/09/17 12:03:28;;;;;;;2.03;0.63;;;18.00;61.50;;;;;;5083966;28;20043;-53
2022/09/17 12:06:02;;;;;;;1.75;0.45;;;18.00;61.00;;;;;;5089084;28;20691;-55
2022/09/17 12:09:00;;;;;;;4.25;0.60;;;18.10;60.80;;;;;;5091944;28;20047;-54
2022/09/17 12:11:39;;;;;;;2.28;0.40;;;18.30;60.00;;;;;;5077644;28;20123;-55
2022/09/17 12:14:30;;;;;;;1.42;0.63;;;18.30;59.20;;;;;;5088355;28;20566;-53
2022/09/17 12:16:59;;;;;;;1.35;0.38;;;18.40;58.10;;;;;;5091138;28;20051;-52
2022/09/17 12:19:41;;;;;;;4.18;0.60;;;18.40;58.80;;;;;;5081872;28;20509;-52
2022/09/17 12:22:16;;;;;;;0.50;0.30;;;18.60;57.80;;;;;;5076164;28;20044;-55
2022/09/17 12:24:44;;;;;;;2.17;0.30;;;18.60;58.20;;;;;;5089775;28;20130;-55
2022/09/17 12:27:32;;;;;;;1.55;0.50;;;18.70;59.10;;;;;;5081533;28;20040;-53
2022/09/17 12:30:18;;;;;;;0.55;0.20;;;18.70;57.30;;;;;;5075583;28;20115;-56
2022/09/17 12:33:20;;;;;;;2.75;0.40;;;18.70;55.60;;;;;;5078813;28;20048;-55
2022/09/17 12:36:01;;;;;;;2.22;0.25;;;18.70;56.40;;;;;;5084598;28;20046;-52
2022/09/17 12:39:05;;;;;;;0.88;0.32;;;18.80;55.80;;;;;;5082433;28;20543;-54
2022/09/17 12:41:51;;;;;;;1.38;0.40;;;18.80;56.20;;;;;;5078540;28;20123;-53
2022/09/17 12:44:34;;;;;;;2.38;0.35;;;18.80;56.90;;;;;;5083233;28;20047;-55
2022/09/17 12:47:04;;;;;;;0.40;0.30;;;18.80;55.50;;;;;;5082263;28;20067;-53
2022/09/17 12:49:58;;;;;;;4.05;0.57;;;18.90;56.70;;;;;;5081344;28;20043;-53
2022/09/17 12:52:47;;;;;;;1.73;0.90;;;18.90;56.90;;;;;;5075791;28;20043;-53
2022/09/17 12:55:49;;;;;;;4.50;1.30;;;19.00;56.90;;;;;;5085348;28;20408;-55
2022/09/17 12:58:41;;;;;;;2.08;0.70;;;19.10;56.60;;;;;;5080013;28;20493;-50
2022/09/17 13:01:28;;;;;;;1.40;0.50;;;19.20;57.10;;;;;;5079670;28;20041;-51
2022/09/17 13:04:09;;;;;;;1.58;0.30;;;19.20;56.30;;;;;;5085912;28;20040;-52
2022/09/17 13:07:16;;;;;;;1.30;0.25;;;19.30;56.30;;;;;;5073334;28;20044;-53
2022/09/17 13:10:04;;;;;;;2.00;0.30;;;19.30;55.80;;;;;;5080664;28;20047;-56
2022/09/17 13:13:06;;;;;;;3.08;0.40;;;19.40;56.60;;;;;;5077946;28;20037;-55
2022/09/17 13:15:41;;;;;;;3.13;0.40;;;19.50;56.40;;;;;;5080164;28;20044;-53
2022/09/17 13:18:14;;;;;;;2.20;0.50;;;19.60;55.30;;;;;;5082453;28;20032;-55
2022/09/17 13:21:12;;;;;;;2.88;0.55;;;19.60;55.80;;;;;;5078808;28;20556;-52
2022/09/17 13:23:44;;;;;;;2.42;0.60;;;19.80;55.10;;;;;;5082549;28;20041;-52
2022/09/17 13:26:17;;;;;;;1.85;0.40;;;19.90;54.40;;;;;;5081829;28;20570;-53